LEBB/BIO METAR and TAF weather

Enter ICAO airport designator
Station Type Date Time Source
LEBB METAR 2021/04/13 21:30 UTC NOAA

LEBB 132130Z VRB02KT CAVOK 09/04 Q1023 NOSIG


Station Type Date Time Source
LEBB Decoded METAR 2021/04/13 21:30 UTC NOAA

Bilbao / Sondica, Spain (LEBB) 43-18N 002-56W 37M
Apr 13, 2021 - 05:30 PM EDT / 2021.04.13 2130 UTC
Wind: Variable at 2 MPH (2 KT):0
Visibility: greater than 7 mile(s):0
Temperature: 48 F (9 C)
Dew Point: 39 F (4 C)
Relative Humidity: 70%
Pressure (altimeter): 30.21 in. Hg (1023 hPa)
ob: LEBB 132130Z VRB02KT CAVOK 09/04 Q1023 NOSIG
cycle: 21

Station Type Date Time Source
LEBB TAF 2021/04/13 18:27 UTC NOAA

TAF LEBB 131700Z 1318/1418 08009KT 9999 FEW040 TX16/1414Z TN03/1405Z
TEMPO 1320/1410 VRB02KT

Example: see airport list